createdAt,value
2023-05-06T00:00:36.205Z,29.99
2023-05-06T00:01:36.244Z,29.93
2023-05-06T00:02:36.305Z,29.87
2023-05-06T00:03:36.301Z,29.97
2023-05-06T00:04:36.291Z,29.91
2023-05-06T00:05:36.273Z,29.95
2023-05-06T00:06:36.269Z,29.95
2023-05-06T00:07:36.288Z,30.02
2023-05-06T00:08:36.389Z,30.10
2023-05-06T00:09:36.316Z,30.17
2023-05-06T00:10:36.316Z,30.13
2023-05-06T00:11:36.362Z,30.16
2023-05-06T00:12:36.572Z,30.05
2023-05-06T00:13:36.423Z,30.07
2023-05-06T00:14:36.460Z,30.11
2023-05-06T00:15:36.492Z,30.10
2023-05-06T00:16:36.568Z,30.07
2023-05-06T00:17:36.638Z,30.07
2023-05-06T00:18:36.594Z,30.04
2023-05-06T00:19:36.657Z,29.99
2023-05-06T00:20:36.665Z,29.98
2023-05-06T00:21:36.702Z,29.99
2023-05-06T00:22:36.738Z,29.99
2023-05-06T00:23:36.737Z,30.01
2023-05-06T00:24:36.781Z,29.98
2023-05-06T00:25:36.799Z,29.96
2023-05-06T00:26:36.873Z,29.96
2023-05-06T00:27:36.887Z,30.04
2023-05-06T00:28:36.910Z,30.02
2023-05-06T00:29:36.950Z,30.01
2023-05-06T00:30:36.990Z,29.96
2023-05-06T00:31:37.061Z,29.92
2023-05-06T00:32:37.088Z,30.07
2023-05-06T00:33:37.090Z,30.10
2023-05-06T00:34:37.183Z,29.99
2023-05-06T00:35:37.159Z,30.04
2023-05-06T00:36:37.200Z,29.99
2023-05-06T00:37:37.284Z,30.02
2023-05-06T00:38:37.285Z,30.01
2023-05-06T00:39:37.316Z,29.98
2023-05-06T00:40:37.346Z,29.96
2023-05-06T00:41:37.416Z,30.04
2023-05-06T00:42:37.438Z,30.07
2023-05-06T00:43:37.461Z,30.02
2023-05-06T00:44:37.518Z,30.01
2023-05-06T00:45:37.583Z,29.98
2023-05-06T00:46:37.596Z,30.04
2023-05-06T00:47:37.649Z,30.07
2023-05-06T00:48:37.694Z,30.08
2023-05-06T00:49:37.697Z,30.14
2023-05-06T00:50:37.794Z,30.07
2023-05-06T00:51:37.728Z,30.13
2023-05-06T00:52:37.747Z,30.09
2023-05-06T00:53:37.747Z,30.05
2023-05-06T00:54:37.839Z,30.05
2023-05-06T00:55:37.781Z,30.09
2023-05-06T00:56:37.796Z,30.07
2023-05-06T00:57:37.834Z,30.16
2023-05-06T00:58:37.810Z,30.18
2023-05-06T00:59:37.805Z,30.18
2023-05-06T01:00:37.856Z,30.23
2023-05-06T01:01:37.913Z,30.27
2023-05-06T01:02:46.378Z,30.18
2023-05-06T01:03:38.901Z,30.17
2023-05-06T01:04:37.888Z,30.21
2023-05-06T01:05:37.882Z,30.24
2023-05-06T01:06:38.089Z,30.20
2023-05-06T01:07:37.892Z,30.21
2023-05-06T01:08:37.906Z,30.27
2023-05-06T01:09:37.918Z,30.26
2023-05-06T01:10:37.978Z,30.24
2023-05-06T01:11:37.934Z,30.24
2023-05-06T01:12:38.001Z,30.29
2023-05-06T01:13:37.938Z,30.27
2023-05-06T01:14:37.953Z,30.23
2023-05-06T01:15:37.975Z,30.24
2023-05-06T01:16:38.043Z,30.26
2023-05-06T01:17:38.059Z,30.33
2023-05-06T01:18:38.007Z,30.24
2023-05-06T01:19:38.097Z,30.26
2023-05-06T01:20:38.093Z,30.24
2023-05-06T01:21:38.154Z,30.26
2023-05-06T01:22:38.177Z,30.18
2023-05-06T01:23:38.229Z,30.17
2023-05-06T01:24:38.271Z,30.14
2023-05-06T01:25:38.330Z,30.12
2023-05-06T01:26:38.342Z,30.09
2023-05-06T01:27:38.341Z,30.09
2023-05-06T01:28:38.388Z,30.08
2023-05-06T01:29:38.382Z,30.06
2023-05-06T01:30:38.375Z,30.08
2023-05-06T01:31:38.426Z,30.02
2023-05-06T01:32:38.441Z,30.03
2023-05-06T01:33:38.418Z,30.02
2023-05-06T01:34:38.439Z,30.03
2023-05-06T01:35:38.444Z,30.00
2023-05-06T01:36:38.445Z,29.99
2023-05-06T01:37:38.492Z,29.95
2023-05-06T01:38:38.551Z,29.90
2023-05-06T01:39:38.526Z,29.90
2023-05-06T01:40:38.537Z,29.90
2023-05-06T01:41:38.527Z,29.87
2023-05-06T01:42:38.545Z,29.88
2023-05-06T01:43:38.538Z,29.87
2023-05-06T01:44:38.539Z,29.82
2023-05-06T01:45:38.548Z,29.83
2023-05-06T01:46:38.619Z,29.79
2023-05-06T01:47:38.626Z,29.77
2023-05-06T01:48:38.657Z,29.82
2023-05-06T01:49:38.709Z,29.76
2023-05-06T01:50:38.733Z,29.82
2023-05-06T01:51:38.795Z,29.80
2023-05-06T01:52:38.851Z,29.71
2023-05-06T01:53:38.877Z,29.75
2023-05-06T01:54:38.937Z,29.71
2023-05-06T01:55:38.985Z,29.68
2023-05-06T01:56:39.073Z,29.64
2023-05-06T01:57:39.079Z,29.65
2023-05-06T01:58:39.141Z,29.62
2023-05-06T01:59:39.177Z,29.70
2023-05-06T02:00:39.229Z,29.65
2023-05-06T02:01:39.350Z,29.62
2023-05-06T02:02:39.424Z,29.63
2023-05-06T02:03:39.533Z,29.66
2023-05-06T02:04:39.459Z,29.66
2023-05-06T02:05:39.500Z,29.68
2023-05-06T02:06:39.547Z,29.65
2023-05-06T02:07:39.601Z,29.66
2023-05-06T02:08:39.727Z,29.65
2023-05-06T02:09:39.703Z,29.66
2023-05-06T02:10:39.780Z,29.56
2023-05-06T02:11:39.843Z,29.59
2023-05-06T02:12:39.902Z,29.56
2023-05-06T02:13:39.918Z,29.65
2023-05-06T02:14:39.923Z,29.65
2023-05-06T02:15:39.941Z,29.59
2023-05-06T02:16:39.992Z,29.58
2023-05-06T02:17:40.002Z,29.50
2023-05-06T02:18:39.986Z,29.55
2023-05-06T02:19:40.278Z,29.47
2023-05-06T02:20:40.046Z,29.56
2023-05-06T02:21:40.015Z,29.56
2023-05-06T02:22:40.033Z,29.53
2023-05-06T02:23:40.067Z,29.58
2023-05-06T02:24:40.062Z,29.52
2023-05-06T02:25:40.082Z,29.50
2023-05-06T02:26:40.156Z,29.50
2023-05-06T02:27:40.145Z,29.51
2023-05-06T02:28:40.143Z,29.54
2023-05-06T02:29:40.150Z,29.54
2023-05-06T02:30:40.190Z,29.53
2023-05-06T02:31:40.287Z,29.51
2023-05-06T02:32:40.332Z,29.50
2023-05-06T02:33:40.223Z,29.60
2023-05-06T02:34:40.195Z,29.63
2023-05-06T02:35:40.220Z,29.69
2023-05-06T02:36:40.234Z,29.67
2023-05-06T02:37:40.324Z,29.66
2023-05-06T02:38:41.109Z,29.64
2023-05-06T02:39:40.467Z,29.62
2023-05-06T02:40:40.512Z,29.58
2023-05-06T02:41:40.573Z,29.45
2023-05-06T02:42:40.730Z,29.35
2023-05-06T02:43:40.723Z,29.38
2023-05-06T02:44:40.758Z,29.37
2023-05-06T02:45:40.848Z,29.51
2023-05-06T02:46:40.921Z,29.59
2023-05-06T02:47:41.016Z,29.39
2023-05-06T02:48:41.032Z,29.59
2023-05-06T02:49:41.104Z,29.49
2023-05-06T02:50:41.190Z,29.65
2023-05-06T02:51:41.247Z,29.74
2023-05-06T02:52:41.303Z,29.76
2023-05-06T02:53:41.411Z,29.78
2023-05-06T02:54:41.453Z,29.78
2023-05-06T02:55:41.556Z,29.85
2023-05-06T02:56:41.627Z,29.88
2023-05-06T02:57:41.698Z,29.86
2023-05-06T02:58:41.834Z,29.89
2023-05-06T02:59:41.825Z,29.85
2023-05-06T03:00:41.849Z,29.91
2023-05-06T03:01:41.870Z,29.84
2023-05-06T03:02:41.887Z,29.79
2023-05-06T03:03:41.915Z,29.90
2023-05-06T03:04:42.019Z,29.79
2023-05-06T03:05:41.917Z,29.84
2023-05-06T03:06:41.927Z,29.79
2023-05-06T03:07:42.003Z,29.82
2023-05-06T03:08:41.963Z,29.85
2023-05-06T03:09:41.968Z,29.79
2023-05-06T03:10:42.036Z,29.82
2023-05-06T03:11:42.123Z,29.82
2023-05-06T03:12:42.204Z,29.89
2023-05-06T03:13:42.311Z,29.95
2023-05-06T03:14:42.434Z,29.90
2023-05-06T03:15:42.459Z,29.87
2023-05-06T03:16:42.543Z,29.92
2023-05-06T03:17:42.632Z,29.87
2023-05-06T03:18:42.689Z,29.84
2023-05-06T03:19:42.803Z,29.90
2023-05-06T03:20:42.854Z,29.89
2023-05-06T03:21:43.068Z,29.97
2023-05-06T03:22:43.112Z,29.92
2023-05-06T03:23:43.105Z,29.95
2023-05-06T03:24:43.118Z,29.88
2023-05-06T03:25:43.135Z,29.88
2023-05-06T03:26:43.155Z,29.91
2023-05-06T03:27:43.155Z,29.90
2023-05-06T03:28:43.168Z,29.86
2023-05-06T03:29:43.183Z,29.91
2023-05-06T03:30:43.207Z,29.99
2023-05-06T03:31:43.376Z,30.03
2023-05-06T03:32:43.283Z,30.02
2023-05-06T03:33:43.300Z,30.06
2023-05-06T03:34:43.359Z,30.06
2023-05-06T03:35:43.442Z,29.95
2023-05-06T03:36:43.522Z,29.83
2023-05-06T03:37:43.626Z,29.99
2023-05-06T03:38:43.699Z,30.08
2023-05-06T03:39:43.769Z,30.10
2023-05-06T03:40:43.881Z,30.17
2023-05-06T03:41:43.967Z,30.17
2023-05-06T03:42:44.050Z,30.13
2023-05-06T03:43:44.150Z,30.13
2023-05-06T03:44:44.213Z,30.12
2023-05-06T03:45:44.263Z,30.10
2023-05-06T03:46:44.499Z,30.07
2023-05-06T03:47:44.455Z,30.15
2023-05-06T03:48:44.489Z,30.14
2023-05-06T03:49:44.561Z,30.23
2023-05-06T03:50:44.644Z,30.22
2023-05-06T03:51:44.746Z,30.10
2023-05-06T03:52:44.810Z,30.33
2023-05-06T03:53:44.884Z,30.30
2023-05-06T03:54:44.960Z,30.39
2023-05-06T03:55:45.026Z,30.35
2023-05-06T03:56:45.093Z,30.40
2023-05-06T03:57:45.181Z,30.43
2023-05-06T03:58:45.226Z,30.46
2023-05-06T03:59:45.238Z,30.42
2023-05-06T04:00:45.298Z,30.43
2023-05-06T04:01:45.377Z,30.43
2023-05-06T04:02:45.452Z,30.46
2023-05-06T04:03:45.468Z,30.49
2023-05-06T04:04:45.506Z,30.53
2023-05-06T04:05:45.546Z,30.45
2023-05-06T04:06:45.626Z,30.44
2023-05-06T04:07:45.655Z,30.54
2023-05-06T04:08:45.721Z,30.56
2023-05-06T04:09:45.731Z,30.42
2023-05-06T04:10:45.824Z,30.60
2023-05-06T04:11:45.871Z,30.54
2023-05-06T04:12:45.909Z,30.57
2023-05-06T04:13:45.967Z,30.60
2023-05-06T04:14:46.000Z,30.57
2023-05-06T04:15:46.041Z,30.56
2023-05-06T04:16:46.125Z,30.58
2023-05-06T04:17:46.145Z,30.54
2023-05-06T04:18:46.294Z,30.63
2023-05-06T04:19:46.251Z,30.57
2023-05-06T04:20:46.279Z,30.67
2023-05-06T04:21:46.328Z,30.58
2023-05-06T04:22:46.396Z,30.69
2023-05-06T04:23:46.460Z,30.63
2023-05-06T04:24:46.475Z,30.58
2023-05-06T04:25:46.522Z,30.60
2023-05-06T04:26:46.557Z,30.66
2023-05-06T04:27:46.577Z,30.65
2023-05-06T04:28:46.629Z,30.58
2023-05-06T04:29:46.637Z,30.68
2023-05-06T04:30:46.678Z,30.55
2023-05-06T04:31:46.736Z,30.57
2023-05-06T04:32:46.835Z,30.58
2023-05-06T04:33:46.800Z,30.65
2023-05-06T04:34:46.886Z,30.70
2023-05-06T04:35:46.854Z,30.64
2023-05-06T04:36:46.891Z,30.75
2023-05-06T04:37:46.930Z,30.65
2023-05-06T04:38:46.937Z,30.75
2023-05-06T04:39:47.013Z,30.67
2023-05-06T04:40:47.002Z,30.71
2023-05-06T04:41:47.018Z,30.66
2023-05-06T04:42:47.042Z,30.66
2023-05-06T04:43:47.076Z,30.68
2023-05-06T04:44:47.114Z,30.75
2023-05-06T04:45:47.160Z,30.62
2023-05-06T04:46:47.151Z,30.68
2023-05-06T04:47:47.199Z,30.58
2023-05-06T04:48:47.241Z,30.62
2023-05-06T04:49:47.258Z,30.72
2023-05-06T04:50:47.288Z,30.71
2023-05-06T04:51:47.298Z,30.74
2023-05-06T04:52:47.329Z,30.69
2023-05-06T04:53:47.373Z,30.75
2023-05-06T04:54:47.394Z,30.72
2023-05-06T04:55:47.435Z,30.82
2023-05-06T04:56:47.450Z,30.71
2023-05-06T04:57:47.514Z,30.77
2023-05-06T04:58:47.509Z,30.77
2023-05-06T04:59:47.552Z,30.79
2023-05-06T05:00:47.552Z,30.78
2023-05-06T05:01:47.654Z,30.79
2023-05-06T05:02:47.618Z,30.89
2023-05-06T05:03:47.702Z,30.78
2023-05-06T05:04:47.628Z,30.86
2023-05-06T05:05:47.657Z,30.81
2023-05-06T05:06:47.769Z,30.91
2023-05-06T05:07:47.729Z,30.90
2023-05-06T05:08:47.732Z,30.88
2023-05-06T05:09:47.769Z,31.03
2023-05-06T05:10:47.804Z,31.04
2023-05-06T05:11:47.815Z,31.02
2023-05-06T05:12:47.830Z,30.99
2023-05-06T05:13:47.883Z,31.05
2023-05-06T05:14:47.879Z,31.05
2023-05-06T05:15:47.920Z,31.08
2023-05-06T05:16:47.962Z,31.09
2023-05-06T05:17:47.991Z,31.10
2023-05-06T05:18:48.013Z,31.04
2023-05-06T05:19:47.987Z,31.16
2023-05-06T05:20:48.016Z,31.10
2023-05-06T05:21:48.039Z,31.17
2023-05-06T05:22:48.246Z,31.13
2023-05-06T05:23:48.092Z,31.10
2023-05-06T05:24:48.104Z,31.06
2023-05-06T05:25:48.139Z,31.07
2023-05-06T05:26:48.165Z,31.13
2023-05-06T05:27:48.200Z,31.12
2023-05-06T05:28:48.257Z,31.03
2023-05-06T05:29:48.278Z,31.03
2023-05-06T05:30:48.316Z,31.00
2023-05-06T05:31:48.440Z,30.96
2023-05-06T05:32:48.423Z,30.93
2023-05-06T05:33:48.386Z,30.93
2023-05-06T05:34:48.393Z,30.90
2023-05-06T05:35:48.391Z,30.84
2023-05-06T05:36:48.433Z,30.81
2023-05-06T05:37:48.428Z,30.79
2023-05-06T05:38:48.462Z,30.74
2023-05-06T05:39:48.462Z,30.74
2023-05-06T05:40:48.476Z,30.71
2023-05-06T05:41:48.509Z,30.69
2023-05-06T05:42:48.508Z,30.73
2023-05-06T05:43:48.556Z,30.70
2023-05-06T05:44:48.571Z,30.65
2023-05-06T05:45:48.576Z,30.65
2023-05-06T05:46:48.664Z,30.67
2023-05-06T05:47:48.629Z,30.62
2023-05-06T05:48:48.634Z,30.60
2023-05-06T05:49:48.653Z,30.65
2023-05-06T05:50:48.652Z,30.66
2023-05-06T05:51:48.669Z,30.69
2023-05-06T05:52:48.670Z,30.75
2023-05-06T05:53:48.691Z,30.80
2023-05-06T05:54:48.711Z,30.74
2023-05-06T05:55:48.738Z,30.75
2023-05-06T05:56:48.743Z,30.77
2023-05-06T05:57:48.768Z,30.71
2023-05-06T05:58:48.801Z,30.69
2023-05-06T05:59:48.801Z,30.73
2023-05-06T06:00:48.842Z,30.77
2023-05-06T06:01:48.836Z,30.68
2023-05-06T06:02:48.910Z,30.90
2023-05-06T06:03:49.036Z,30.79
2023-05-06T06:04:48.898Z,30.68
2023-05-06T06:05:48.919Z,30.73
2023-05-06T06:06:48.948Z,30.83
2023-05-06T06:07:48.936Z,30.80
2023-05-06T06:08:49.031Z,30.88
2023-05-06T06:09:48.990Z,30.96
2023-05-06T06:10:49.073Z,31.02
2023-05-06T06:11:49.033Z,31.01
2023-05-06T06:12:49.150Z,31.07
2023-05-06T06:13:49.107Z,31.12
2023-05-06T06:14:49.137Z,31.02
2023-05-06T06:15:49.232Z,31.22
2023-05-06T06:16:49.175Z,31.19
2023-05-06T06:17:49.209Z,31.21
2023-05-06T06:18:49.232Z,31.23
2023-05-06T06:19:49.248Z,31.21
2023-05-06T06:20:50.434Z,31.39
2023-05-06T06:21:49.320Z,31.41
2023-05-06T06:22:49.353Z,31.39
2023-05-06T06:23:49.358Z,31.39
2023-05-06T06:24:49.391Z,31.34
2023-05-06T06:25:49.418Z,31.38
2023-05-06T06:26:49.698Z,31.32
2023-05-06T06:27:49.502Z,31.34
2023-05-06T06:28:49.510Z,31.27
2023-05-06T06:29:49.512Z,31.21
2023-05-06T06:30:49.608Z,31.42
2023-05-06T06:31:49.597Z,31.35
2023-05-06T06:32:49.666Z,31.49
2023-05-06T06:33:49.627Z,31.45
2023-05-06T06:34:49.656Z,31.40
2023-05-06T06:35:49.664Z,31.41
2023-05-06T06:36:49.679Z,31.41
2023-05-06T06:37:49.735Z,31.38
2023-05-06T06:38:49.745Z,31.48
2023-05-06T06:39:49.762Z,31.28
2023-05-06T06:40:49.788Z,31.25
2023-05-06T06:41:49.814Z,31.32
2023-05-06T06:42:49.834Z,31.29
2023-05-06T06:43:49.861Z,31.39
2023-05-06T06:44:49.888Z,31.31
2023-05-06T06:45:50.010Z,31.15
2023-05-06T06:46:49.905Z,31.34
2023-05-06T06:47:49.976Z,31.34
2023-05-06T06:48:49.992Z,31.35
2023-05-06T06:49:49.981Z,31.33
2023-05-06T06:50:50.032Z,31.20
2023-05-06T06:51:50.077Z,31.26
2023-05-06T06:52:50.081Z,31.34
2023-05-06T06:53:50.106Z,31.28
2023-05-06T06:54:50.154Z,31.34
2023-05-06T06:55:50.171Z,31.35
2023-05-06T06:56:50.169Z,31.34
2023-05-06T06:57:50.223Z,31.26
2023-05-06T06:58:52.465Z,31.29
2023-05-06T06:59:50.252Z,31.29
2023-05-06T07:00:50.299Z,31.35
2023-05-06T07:01:50.297Z,31.27
2023-05-06T07:02:50.350Z,31.44
2023-05-06T07:03:50.398Z,31.43
2023-05-06T07:04:50.384Z,31.37
2023-05-06T07:05:50.396Z,31.44
2023-05-06T07:06:50.418Z,31.61
2023-05-06T07:07:50.447Z,31.67
2023-05-06T07:08:50.487Z,31.79
2023-05-06T07:09:50.514Z,31.91
2023-05-06T07:10:50.546Z,31.92
2023-05-06T07:11:50.571Z,32.02
2023-05-06T07:12:50.609Z,32.14
2023-05-06T07:13:50.624Z,32.29
2023-05-06T07:14:50.864Z,32.40
2023-05-06T07:15:50.706Z,32.39
2023-05-06T07:16:51.563Z,32.53
2023-05-06T07:17:50.889Z,32.86
2023-05-06T07:18:50.871Z,32.98
2023-05-06T07:19:50.883Z,32.76
2023-05-06T07:20:51.701Z,32.69
2023-05-06T07:21:50.900Z,32.63
2023-05-06T07:22:50.916Z,32.57
2023-05-06T07:23:50.980Z,32.54
2023-05-06T07:24:50.985Z,32.53
2023-05-06T07:25:51.008Z,32.50
2023-05-06T07:26:51.047Z,32.45
2023-05-06T07:27:51.091Z,32.32
2023-05-06T07:28:51.185Z,32.43
2023-05-06T07:29:51.132Z,32.51
2023-05-06T07:30:51.241Z,32.64
2023-05-06T07:31:51.165Z,32.52
2023-05-06T07:32:51.274Z,32.33
2023-05-06T07:33:51.201Z,32.29
2023-05-06T07:34:51.242Z,32.21
2023-05-06T07:35:51.264Z,32.17
2023-05-06T07:36:51.272Z,32.10
2023-05-06T07:37:51.311Z,32.00
2023-05-06T07:38:51.318Z,31.94
2023-05-06T07:39:51.352Z,31.88
2023-05-06T07:40:51.410Z,31.74
2023-05-06T07:41:51.386Z,31.70
2023-05-06T07:42:51.416Z,31.63
2023-05-06T07:43:51.459Z,31.53
2023-05-06T07:44:51.458Z,31.60
2023-05-06T07:45:51.562Z,31.45
2023-05-06T07:46:51.585Z,31.44
2023-05-06T07:47:51.625Z,31.39
2023-05-06T07:48:51.556Z,31.31
2023-05-06T07:49:51.559Z,31.28
2023-05-06T07:50:51.600Z,31.31
2023-05-06T07:51:51.612Z,31.38
2023-05-06T07:52:51.638Z,31.33
2023-05-06T07:53:51.679Z,31.30
2023-05-06T07:54:51.684Z,31.38
2023-05-06T07:55:51.717Z,31.30
2023-05-06T07:56:51.727Z,31.37
2023-05-06T07:57:51.741Z,31.45
2023-05-06T07:58:51.782Z,31.38
2023-05-06T07:59:51.830Z,31.35
2023-05-06T08:00:51.917Z,31.27
2023-05-06T08:01:51.967Z,31.23
2023-05-06T08:02:52.213Z,31.23
2023-05-06T08:03:52.193Z,31.10
2023-05-06T08:04:52.255Z,31.06
2023-05-06T08:05:52.269Z,30.89
2023-05-06T08:06:52.340Z,30.79
2023-05-06T08:07:52.383Z,30.84
2023-05-06T08:08:52.455Z,30.85
2023-05-06T08:09:52.530Z,31.08
2023-05-06T08:10:52.564Z,31.00
2023-05-06T08:11:52.626Z,30.97
2023-05-06T08:12:52.744Z,31.00
2023-05-06T08:13:52.668Z,31.06
2023-05-06T08:14:52.675Z,31.03
2023-05-06T08:15:52.695Z,31.00
2023-05-06T08:16:52.722Z,30.97
2023-05-06T08:17:52.761Z,30.94
2023-05-06T08:18:52.792Z,30.90
2023-05-06T08:19:52.746Z,30.95
2023-05-06T08:20:52.762Z,30.81
2023-05-06T08:21:52.759Z,30.85
2023-05-06T08:22:52.780Z,30.87
2023-05-06T08:23:52.776Z,30.73
2023-05-06T08:24:52.820Z,30.73
2023-05-06T08:25:52.847Z,30.71
2023-05-06T08:26:52.904Z,30.72
2023-05-06T08:27:52.968Z,30.65
2023-05-06T08:28:53.039Z,30.67
2023-05-06T08:29:53.075Z,30.70
2023-05-06T08:30:53.139Z,30.72
2023-05-06T08:31:53.281Z,30.62
2023-05-06T08:32:53.301Z,30.60
2023-05-06T08:33:54.732Z,30.51
2023-05-06T08:34:53.412Z,30.52
2023-05-06T08:35:53.393Z,30.43
2023-05-06T08:36:53.452Z,30.39
2023-05-06T08:37:53.529Z,30.39
2023-05-06T08:38:53.551Z,30.35
2023-05-06T08:39:53.627Z,30.24
2023-05-06T08:40:53.687Z,30.27
2023-05-06T08:41:53.698Z,30.18
2023-05-06T08:42:53.733Z,30.15
2023-05-06T08:43:53.768Z,30.06
2023-05-06T08:44:53.811Z,30.02
2023-05-06T08:45:53.958Z,29.96
2023-05-06T08:46:53.883Z,29.96
2023-05-06T08:47:53.956Z,29.86
2023-05-06T08:48:53.933Z,29.89
2023-05-06T08:49:53.946Z,29.82
2023-05-06T08:50:54.038Z,29.78
2023-05-06T08:51:53.999Z,29.69
2023-05-06T08:52:54.016Z,29.72
2023-05-06T08:53:54.061Z,29.68
2023-05-06T08:54:54.054Z,29.64
2023-05-06T08:55:54.070Z,29.61
2023-05-06T08:56:54.075Z,29.55
2023-05-06T08:57:54.104Z,29.53
2023-05-06T08:58:54.108Z,29.44
2023-05-06T08:59:54.097Z,29.50
2023-05-06T09:00:54.170Z,29.41
2023-05-06T09:01:54.141Z,29.29
2023-05-06T09:02:54.325Z,29.29
2023-05-06T09:03:54.211Z,29.29
2023-05-06T09:04:54.242Z,29.21
2023-05-06T09:05:54.268Z,29.19
2023-05-06T09:06:54.332Z,29.21
2023-05-06T09:07:54.354Z,29.18
2023-05-06T09:08:54.452Z,29.15
2023-05-06T09:09:54.524Z,29.14
2023-05-06T09:10:54.600Z,29.17
2023-05-06T09:11:54.680Z,29.14
2023-05-06T09:12:54.772Z,29.14
2023-05-06T09:13:54.822Z,29.14
2023-05-06T09:14:54.906Z,29.10
2023-05-06T09:15:54.968Z,29.08
2023-05-06T09:16:55.060Z,29.18
2023-05-06T09:17:55.217Z,29.05
2023-05-06T09:18:55.209Z,29.10
2023-05-06T09:19:55.261Z,29.10
2023-05-06T09:20:55.340Z,29.08
2023-05-06T09:21:55.416Z,29.11
2023-05-06T09:22:55.550Z,29.08
2023-05-06T09:23:55.555Z,29.14
2023-05-06T09:24:55.638Z,29.11
2023-05-06T09:25:55.689Z,29.08
2023-05-06T09:26:55.765Z,29.05
2023-05-06T09:27:55.835Z,29.10
2023-05-06T09:28:55.903Z,29.11
2023-05-06T09:29:55.972Z,29.06
2023-05-06T09:30:56.069Z,29.10
2023-05-06T09:31:56.116Z,29.10
2023-05-06T09:32:56.213Z,29.11
2023-05-06T09:33:56.237Z,29.10
2023-05-06T09:34:56.307Z,29.11
2023-05-06T09:35:56.395Z,29.10
2023-05-06T09:36:56.466Z,29.10
2023-05-06T09:37:56.466Z,29.14
2023-05-06T09:38:56.632Z,29.08
2023-05-06T09:39:56.598Z,29.10
2023-05-06T09:40:56.674Z,29.08
2023-05-06T09:41:56.725Z,29.10
2023-05-06T09:42:56.780Z,29.11
2023-05-06T09:43:56.864Z,29.13
2023-05-06T09:44:58.159Z,29.05
2023-05-06T09:45:56.882Z,29.08
2023-05-06T09:46:56.849Z,29.08
2023-05-06T09:47:57.028Z,29.10
2023-05-06T09:48:56.887Z,29.04
2023-05-06T09:49:56.837Z,29.08
2023-05-06T09:50:58.361Z,29.10
2023-05-06T09:51:56.840Z,29.04
2023-05-06T09:52:56.870Z,29.07
2023-05-06T09:53:56.873Z,29.05
2023-05-06T09:54:56.854Z,29.10
2023-05-06T09:55:56.847Z,29.02
2023-05-06T09:56:59.799Z,29.05
2023-05-06T09:57:56.872Z,29.12
2023-05-06T09:58:56.868Z,29.04
2023-05-06T09:59:56.871Z,29.10
2023-05-06T10:00:56.843Z,29.00
2023-05-06T10:01:56.889Z,29.05
2023-05-06T10:02:56.961Z,28.98
2023-05-06T10:03:56.968Z,29.05
2023-05-06T10:04:57.193Z,29.10
2023-05-06T10:05:56.861Z,29.12
2023-05-06T10:06:56.858Z,29.02
2023-05-06T10:07:56.849Z,29.10
2023-05-06T10:08:56.872Z,29.12
2023-05-06T10:09:56.856Z,29.08
2023-05-06T10:10:56.950Z,29.10
2023-05-06T10:11:56.883Z,29.10
2023-05-06T10:12:56.898Z,29.05
2023-05-06T10:13:56.878Z,29.08
2023-05-06T10:14:56.876Z,29.12
2023-05-06T10:15:56.956Z,29.07
2023-05-06T10:16:57.014Z,29.02
2023-05-06T10:17:57.100Z,29.02
2023-05-06T10:18:57.151Z,29.05
2023-05-06T10:19:57.217Z,29.07
2023-05-06T10:20:57.284Z,29.07
2023-05-06T10:21:57.359Z,29.07
2023-05-06T10:22:57.435Z,29.02
2023-05-06T10:23:57.495Z,29.01
2023-05-06T10:24:57.560Z,29.02
2023-05-06T10:25:57.641Z,29.11
2023-05-06T10:26:57.702Z,29.02
2023-05-06T10:27:57.794Z,29.02
2023-05-06T10:28:57.840Z,29.04
2023-05-06T10:29:57.917Z,29.04
2023-05-06T10:30:58.034Z,28.99
2023-05-06T10:31:58.175Z,29.01
2023-05-06T10:32:58.170Z,28.99
2023-05-06T10:33:58.229Z,29.04
2023-05-06T10:34:58.336Z,29.01
2023-05-06T10:35:58.367Z,28.96
2023-05-06T10:36:58.433Z,28.98
2023-05-06T10:37:58.494Z,28.95
2023-05-06T10:38:58.567Z,29.02
2023-05-06T10:39:58.642Z,28.96
2023-05-06T10:40:58.735Z,28.92
2023-05-06T10:41:58.804Z,28.94
2023-05-06T10:42:58.879Z,28.95
2023-05-06T10:43:58.922Z,28.90
2023-05-06T10:44:58.986Z,28.95
2023-05-06T10:45:59.121Z,28.92
2023-05-06T10:46:59.138Z,28.94
2023-05-06T10:47:59.214Z,28.89
2023-05-06T10:48:59.273Z,28.88
2023-05-06T10:49:59.322Z,28.87
2023-05-06T10:50:59.391Z,28.89
2023-05-06T10:51:59.461Z,28.86
2023-05-06T10:52:59.519Z,28.92
2023-05-06T10:53:59.601Z,28.90
2023-05-06T10:54:59.654Z,28.86
2023-05-06T10:55:59.738Z,28.87
2023-05-06T10:56:59.790Z,28.88
2023-05-06T10:57:59.840Z,28.85
2023-05-06T10:58:59.899Z,28.90
2023-05-06T10:59:59.974Z,28.86
2023-05-06T11:01:00.035Z,28.89
2023-05-06T11:02:00.196Z,28.90
2023-05-06T11:03:00.239Z,28.89
2023-05-06T11:04:00.233Z,28.86
2023-05-06T11:05:00.289Z,28.83
2023-05-06T11:06:00.361Z,28.83
2023-05-06T11:07:00.410Z,28.82
2023-05-06T11:08:00.474Z,28.80
2023-05-06T11:09:00.549Z,28.86
2023-05-06T11:10:00.613Z,28.83
2023-05-06T11:11:00.608Z,28.82
2023-05-06T11:12:00.598Z,28.79
2023-05-06T11:13:00.606Z,28.70
2023-05-06T11:14:00.600Z,28.69
2023-05-06T11:15:00.691Z,28.76
2023-05-06T11:16:00.598Z,28.72
2023-05-06T11:17:00.662Z,28.70
2023-05-06T11:18:00.632Z,28.70
2023-05-06T11:19:00.603Z,28.66
2023-05-06T11:20:00.603Z,28.69
2023-05-06T11:21:00.629Z,28.67
2023-05-06T11:22:00.582Z,28.67
2023-05-06T11:23:00.588Z,28.69
2023-05-06T11:24:00.642Z,28.66
2023-05-06T11:25:00.681Z,28.69
2023-05-06T11:26:00.749Z,28.70
2023-05-06T11:27:00.784Z,28.64
2023-05-06T11:28:00.831Z,28.66
2023-05-06T11:29:00.929Z,28.69
2023-05-06T11:30:00.953Z,28.63
2023-05-06T11:31:01.104Z,28.63
2023-05-06T11:32:01.047Z,28.68
2023-05-06T11:33:02.209Z,28.63
2023-05-06T11:34:01.184Z,28.69
2023-05-06T11:35:01.217Z,28.65
2023-05-06T11:36:01.264Z,28.63
2023-05-06T11:37:01.333Z,28.61
2023-05-06T11:38:01.441Z,28.60
2023-05-06T11:39:02.377Z,28.60
2023-05-06T11:40:02.269Z,28.59
2023-05-06T11:41:02.279Z,28.59
2023-05-06T11:42:01.415Z,28.59
2023-05-06T11:43:01.420Z,28.59
2023-05-06T11:44:01.458Z,28.61
2023-05-06T11:45:01.432Z,28.65
2023-05-06T11:46:01.437Z,28.62
2023-05-06T11:47:01.441Z,28.61
2023-05-06T11:48:02.374Z,28.65
2023-05-06T11:49:01.810Z,28.63
2023-05-06T11:50:01.527Z,28.61
2023-05-06T11:51:01.441Z,28.59
2023-05-06T11:52:01.412Z,28.61
2023-05-06T11:53:01.451Z,28.63
2023-05-06T11:54:01.504Z,28.64
2023-05-06T11:55:01.471Z,28.61
2023-05-06T11:56:01.423Z,28.61
2023-05-06T11:57:01.448Z,28.59
2023-05-06T11:58:01.406Z,28.59
2023-05-06T11:59:01.788Z,28.56
2023-05-06T12:00:01.471Z,28.62
2023-05-06T12:01:01.471Z,28.62
2023-05-06T12:02:01.562Z,28.58
2023-05-06T12:03:01.566Z,28.59
2023-05-06T12:04:01.531Z,28.56
2023-05-06T12:05:01.452Z,28.53
2023-05-06T12:06:01.497Z,28.54
2023-05-06T12:07:01.387Z,28.51
2023-05-06T12:08:01.393Z,28.61
2023-05-06T12:09:01.383Z,28.53
2023-05-06T12:10:01.409Z,28.58
2023-05-06T12:11:01.396Z,28.59
2023-05-06T12:12:01.382Z,28.57
2023-05-06T12:13:01.420Z,28.58
2023-05-06T12:14:01.402Z,28.57
2023-05-06T12:15:01.433Z,28.54
2023-05-06T12:16:01.611Z,28.56
2023-05-06T12:17:01.547Z,28.55
2023-05-06T12:18:01.845Z,28.56
2023-05-06T12:19:01.717Z,28.58
2023-05-06T12:20:01.734Z,28.52
2023-05-06T12:21:01.772Z,28.61
2023-05-06T12:22:01.817Z,28.55
2023-05-06T12:23:01.872Z,28.56
2023-05-06T12:24:01.959Z,28.53
2023-05-06T12:25:01.966Z,28.54
2023-05-06T12:26:02.032Z,28.56
2023-05-06T12:27:02.068Z,28.54
2023-05-06T12:28:02.121Z,28.58
2023-05-06T12:29:02.183Z,28.50
2023-05-06T12:30:02.245Z,28.54
2023-05-06T12:31:02.292Z,28.48
2023-05-06T12:32:02.423Z,28.55
2023-05-06T12:33:02.419Z,28.50
2023-05-06T12:34:02.868Z,28.50
2023-05-06T12:35:02.580Z,28.53
2023-05-06T12:36:02.548Z,28.49
2023-05-06T12:37:02.585Z,28.47
2023-05-06T12:38:02.658Z,28.49
2023-05-06T12:39:02.695Z,28.52
2023-05-06T12:40:02.755Z,28.41
2023-05-06T12:41:02.799Z,28.45
2023-05-06T12:42:02.839Z,28.47
2023-05-06T12:43:02.882Z,28.43
2023-05-06T12:44:02.932Z,28.43
2023-05-06T12:45:02.980Z,28.43
2023-05-06T12:46:03.072Z,28.45
2023-05-06T12:47:03.091Z,28.41
2023-05-06T12:48:03.153Z,28.40
2023-05-06T12:49:03.243Z,28.40
2023-05-06T12:50:03.307Z,28.37
2023-05-06T12:51:03.317Z,28.43
2023-05-06T12:52:03.409Z,28.38
2023-05-06T12:53:03.336Z,28.36